sensor_id;sensor_type;location;lat;lon;timestamp;pressure;altitude;pressure_sealevel;temperature;humidity
54850;BME280;47660;51.334;12.396;2023-07-29T00:01:15;99494.03;;;34.05;45.98
54850;BME280;47660;51.334;12.396;2023-07-29T00:03:43;99500.09;;;33.08;47.35
54850;BME280;47660;51.334;12.396;2023-07-29T00:06:14;99502.88;;;31.72;50.69
54850;BME280;47660;51.334;12.396;2023-07-29T00:08:42;99503.06;;;31.65;51.22
54850;BME280;47660;51.334;12.396;2023-07-29T00:11:10;99487.44;;;32.64;48.64
54850;BME280;47660;51.334;12.396;2023-07-29T00:13:43;99485.50;;;32.26;51.18
54850;BME280;47660;51.334;12.396;2023-07-29T00:16:12;99488.19;;;32.49;48.63
54850;BME280;47660;51.334;12.396;2023-07-29T00:18:40;99480.53;;;32.99;48.04
54850;BME280;47660;51.334;12.396;2023-07-29T00:21:06;99481.38;;;33.04;47.60
54850;BME280;47660;51.334;12.396;2023-07-29T00:23:37;99482.72;;;32.54;48.61
54850;BME280;47660;51.334;12.396;2023-07-29T00:26:02;99481.59;;;32.93;48.07
54850;BME280;47660;51.334;12.396;2023-07-29T00:28:31;99479.69;;;32.55;50.86
54850;BME280;47660;51.334;12.396;2023-07-29T00:30:59;99472.56;;;32.22;49.66
54850;BME280;47660;51.334;12.396;2023-07-29T00:33:24;99475.38;;;31.94;50.80
54850;BME280;47660;51.334;12.396;2023-07-29T00:35:55;99467.28;;;33.01;47.24
54850;BME280;47660;51.334;12.396;2023-07-29T00:38:20;99466.13;;;32.11;49.98
54850;BME280;47660;51.334;12.396;2023-07-29T00:40:52;99466.47;;;32.14;51.30
54850;BME280;47660;51.334;12.396;2023-07-29T00:43:21;99463.94;;;31.08;53.42
54850;BME280;47660;51.334;12.396;2023-07-29T00:45:52;99459.69;;;31.95;52.43
54850;BME280;47660;51.334;12.396;2023-07-29T00:48:23;99460.06;;;31.49;52.58
54850;BME280;47660;51.334;12.396;2023-07-29T00:50:51;99467.88;;;32.22;51.89
54850;BME280;47660;51.334;12.396;2023-07-29T00:53:20;99464.81;;;32.99;48.36
54850;BME280;47660;51.334;12.396;2023-07-29T00:55:45;99469.56;;;32.61;49.30
54850;BME280;47660;51.334;12.396;2023-07-29T00:58:17;99456.47;;;33.42;47.99
54850;BME280;47660;51.334;12.396;2023-07-29T01:00:46;99470.38;;;32.62;49.33
54850;BME280;47660;51.334;12.396;2023-07-29T01:03:12;99472.06;;;31.92;50.71
54850;BME280;47660;51.334;12.396;2023-07-29T01:13:53;99467.41;;;32.68;48.74
54850;BME280;47660;51.334;12.396;2023-07-29T01:16:31;99454.34;;;34.17;46.62
54850;BME280;47660;51.334;12.396;2023-07-29T01:19:03;99465.09;;;32.98;50.04
54850;BME280;47660;51.334;12.396;2023-07-29T01:21:33;99462.63;;;34.22;46.82
54850;BME280;47660;51.334;12.396;2023-07-29T01:24:00;99473.91;;;32.19;49.89
54850;BME280;47660;51.334;12.396;2023-07-29T01:26:25;99470.00;;;32.85;48.71
54850;BME280;47660;51.334;12.396;2023-07-29T01:28:51;99477.47;;;32.47;49.75
54850;BME280;47660;51.334;12.396;2023-07-29T01:31:37;99461.25;;;33.94;47.45
54850;BME280;47660;51.334;12.396;2023-07-29T01:34:12;99465.88;;;33.67;48.26
54850;BME280;47660;51.334;12.396;2023-07-29T01:36:41;99466.16;;;33.66;48.71
54850;BME280;47660;51.334;12.396;2023-07-29T01:39:11;99478.47;;;33.37;49.36
54850;BME280;47660;51.334;12.396;2023-07-29T01:41:43;99467.13;;;32.70;51.05
54850;BME280;47660;51.334;12.396;2023-07-29T01:44:12;99473.91;;;33.00;49.98
54850;BME280;47660;51.334;12.396;2023-07-29T01:46:40;99477.78;;;31.91;51.58
54850;BME280;47660;51.334;12.396;2023-07-29T01:49:08;99481.09;;;32.25;51.28
54850;BME280;47660;51.334;12.396;2023-07-29T01:51:33;99479.16;;;32.58;50.50
54850;BME280;47660;51.334;12.396;2023-07-29T01:54:02;99476.78;;;32.78;49.61
54850;BME280;47660;51.334;12.396;2023-07-29T01:56:27;99469.56;;;33.14;48.91
54850;BME280;47660;51.334;12.396;2023-07-29T01:58:56;99473.34;;;32.93;49.48
54850;BME280;47660;51.334;12.396;2023-07-29T02:01:24;99479.44;;;32.57;49.99
54850;BME280;47660;51.334;12.396;2023-07-29T02:03:49;99477.81;;;33.14;48.44
54850;BME280;47660;51.334;12.396;2023-07-29T02:06:26;99473.06;;;33.78;48.11
54850;BME280;47660;51.334;12.396;2023-07-29T02:08:52;99478.44;;;32.79;48.65
54850;BME280;47660;51.334;12.396;2023-07-29T02:11:21;99477.19;;;32.16;50.48
54850;BME280;47660;51.334;12.396;2023-07-29T02:13:52;99475.66;;;32.68;49.16
54850;BME280;47660;51.334;12.396;2023-07-29T02:16:17;99470.44;;;32.29;50.72
54850;BME280;47660;51.334;12.396;2023-07-29T02:18:46;99471.91;;;32.85;49.59
54850;BME280;47660;51.334;12.396;2023-07-29T02:21:11;99466.88;;;32.28;50.39
54850;BME280;47660;51.334;12.396;2023-07-29T02:23:36;99471.97;;;32.14;51.19
54850;BME280;47660;51.334;12.396;2023-07-29T02:26:07;99458.78;;;33.92;48.41
54850;BME280;47660;51.334;12.396;2023-07-29T02:28:43;99472.56;;;32.59;49.84
54850;BME280;47660;51.334;12.396;2023-07-29T02:31:22;99457.59;;;33.57;48.49
54850;BME280;47660;51.334;12.396;2023-07-29T02:33:47;99461.56;;;32.59;49.88
54850;BME280;47660;51.334;12.396;2023-07-29T02:36:13;99455.88;;;32.77;50.53
54850;BME280;47660;51.334;12.396;2023-07-29T02:38:42;99467.28;;;33.01;49.37
54850;BME280;47660;51.334;12.396;2023-07-29T02:41:08;99452.75;;;32.20;51.96
54850;BME280;47660;51.334;12.396;2023-07-29T02:43:35;99451.19;;;31.69;53.03
54850;BME280;47660;51.334;12.396;2023-07-29T02:46:01;99457.03;;;32.05;52.06
54850;BME280;47660;51.334;12.396;2023-07-29T02:48:27;99446.34;;;32.89;50.67
54850;BME280;47660;51.334;12.396;2023-07-29T02:50:53;99445.72;;;32.82;49.13
54850;BME280;47660;51.334;12.396;2023-07-29T02:53:18;99456.81;;;32.12;50.74
54850;BME280;47660;51.334;12.396;2023-07-29T02:55:44;99459.03;;;31.82;52.13
54850;BME280;47660;51.334;12.396;2023-07-29T02:58:11;99461.00;;;32.20;50.83
54850;BME280;47660;51.334;12.396;2023-07-29T03:00:39;99465.59;;;33.79;48.57
54850;BME280;47660;51.334;12.396;2023-07-29T03:03:07;99474.22;;;32.60;50.55
54850;BME280;47660;51.334;12.396;2023-07-29T03:05:36;99468.44;;;33.10;48.88
54850;BME280;47660;51.334;12.396;2023-07-29T03:08:03;99466.78;;;32.56;49.68
54850;BME280;47660;51.334;12.396;2023-07-29T03:10:35;99457.66;;;33.98;47.56
54850;BME280;47660;51.334;12.396;2023-07-29T03:13:01;99463.03;;;32.78;48.89
54850;BME280;47660;51.334;12.396;2023-07-29T03:15:26;99460.50;;;33.14;47.83
54850;BME280;47660;51.334;12.396;2023-07-29T03:17:52;99451.28;;;32.87;48.96
54850;BME280;47660;51.334;12.396;2023-07-29T03:20:27;99456.13;;;32.70;49.01
54850;BME280;47660;51.334;12.396;2023-07-29T03:22:53;99458.31;;;32.68;49.22
54850;BME280;47660;51.334;12.396;2023-07-29T03:25:18;99460.16;;;33.05;48.14
54850;BME280;47660;51.334;12.396;2023-07-29T03:27:43;99460.69;;;32.49;49.56
54850;BME280;47660;51.334;12.396;2023-07-29T03:30:11;99455.41;;;32.42;50.94
54850;BME280;47660;51.334;12.396;2023-07-29T03:32:43;99451.66;;;33.12;49.68
54850;BME280;47660;51.334;12.396;2023-07-29T03:35:12;99457.13;;;32.53;49.58
54850;BME280;47660;51.334;12.396;2023-07-29T03:37:41;99460.56;;;32.76;50.63
54850;BME280;47660;51.334;12.396;2023-07-29T03:40:07;99466.31;;;31.71;52.01
54850;BME280;47660;51.334;12.396;2023-07-29T03:42:33;99460.44;;;32.18;51.21
54850;BME280;47660;51.334;12.396;2023-07-29T03:45:01;99459.56;;;31.57;52.26
54850;BME280;47660;51.334;12.396;2023-07-29T03:47:27;99443.44;;;32.64;49.89
54850;BME280;47660;51.334;12.396;2023-07-29T03:49:52;99447.72;;;32.92;48.89
54850;BME280;47660;51.334;12.396;2023-07-29T03:52:18;99458.78;;;32.54;49.67
54850;BME280;47660;51.334;12.396;2023-07-29T03:54:43;99457.03;;;32.38;50.24
54850;BME280;47660;51.334;12.396;2023-07-29T03:57:11;99453.00;;;32.18;50.32
54850;BME280;47660;51.334;12.396;2023-07-29T03:59:41;99457.91;;;32.92;50.56
54850;BME280;47660;51.334;12.396;2023-07-29T04:02:09;99456.81;;;32.12;51.26
54850;BME280;47660;51.334;12.396;2023-07-29T04:04:34;99450.00;;;32.57;50.57
54850;BME280;47660;51.334;12.396;2023-07-29T04:07:00;99454.09;;;31.57;53.01
54850;BME280;47660;51.334;12.396;2023-07-29T04:09:28;99458.03;;;31.94;52.39
54850;BME280;47660;51.334;12.396;2023-07-29T04:11:54;99452.31;;;32.33;51.24
54850;BME280;47660;51.334;12.396;2023-07-29T04:14:19;99452.69;;;32.47;50.44
54850;BME280;47660;51.334;12.396;2023-07-29T04:16:44;99444.41;;;32.90;49.40
54850;BME280;47660;51.334;12.396;2023-07-29T04:19:16;99449.56;;;32.33;50.42
54850;BME280;47660;51.334;12.396;2023-07-29T04:21:42;99444.22;;;33.12;49.12
54850;BME280;47660;51.334;12.396;2023-07-29T04:24:08;99459.53;;;32.44;49.93
54850;BME280;47660;51.334;12.396;2023-07-29T04:26:33;99448.41;;;33.30;47.98
54850;BME280;47660;51.334;12.396;2023-07-29T04:28:58;99446.63;;;32.93;49.11
54850;BME280;47660;51.334;12.396;2023-07-29T04:31:24;99438.84;;;32.32;50.73
54850;BME280;47660;51.334;12.396;2023-07-29T04:33:49;99429.41;;;33.29;48.31
54850;BME280;47660;51.334;12.396;2023-07-29T04:36:14;99434.41;;;32.79;49.45
54850;BME280;47660;51.334;12.396;2023-07-29T04:38:44;99444.25;;;31.89;52.80
54850;BME280;47660;51.334;12.396;2023-07-29T04:41:12;99438.72;;;33.12;50.40
54850;BME280;47660;51.334;12.396;2023-07-29T04:43:40;99435.03;;;34.22;47.32
54850;BME280;47660;51.334;12.396;2023-07-29T04:46:08;99437.88;;;33.07;48.51
54850;BME280;47660;51.334;12.396;2023-07-29T04:48:36;99447.78;;;32.49;49.60
54850;BME280;47660;51.334;12.396;2023-07-29T04:51:02;99446.53;;;32.72;49.04
54850;BME280;47660;51.334;12.396;2023-07-29T04:53:27;99439.94;;;33.53;47.64
54850;BME280;47660;51.334;12.396;2023-07-29T04:55:53;99444.34;;;32.74;48.86
54850;BME280;47660;51.334;12.396;2023-07-29T04:58:18;99430.63;;;33.90;46.59
54850;BME280;47660;51.334;12.396;2023-07-29T05:00:47;99438.06;;;33.63;48.07
54850;BME280;47660;51.334;12.396;2023-07-29T05:03:15;99425.94;;;33.65;48.32
54850;BME280;47660;51.334;12.396;2023-07-29T05:05:43;99423.41;;;34.56;46.24
54850;BME280;47660;51.334;12.396;2023-07-29T05:08:08;99431.44;;;33.59;46.52
54850;BME280;47660;51.334;12.396;2023-07-29T05:10:37;99429.38;;;33.18;48.98
54850;BME280;47660;51.334;12.396;2023-07-29T05:13:05;99430.13;;;32.45;50.09
54850;BME280;47660;51.334;12.396;2023-07-29T05:15:40;99426.88;;;33.07;49.12
54850;BME280;47660;51.334;12.396;2023-07-29T05:18:06;99423.53;;;32.99;48.36
54850;BME280;47660;51.334;12.396;2023-07-29T05:20:33;99429.19;;;33.41;47.58
54850;BME280;47660;51.334;12.396;2023-07-29T05:22:59;99442.22;;;31.24;52.34
54850;BME280;47660;51.334;12.396;2023-07-29T05:25:32;99434.44;;;33.53;48.57
54850;BME280;47660;51.334;12.396;2023-07-29T05:28:01;99439.75;;;32.10;51.50
54850;BME280;47660;51.334;12.396;2023-07-29T05:30:33;99444.50;;;33.11;48.40
54850;BME280;47660;51.334;12.396;2023-07-29T05:33:03;99446.94;;;33.07;48.95
54850;BME280;47660;51.334;12.396;2023-07-29T05:35:37;99453.91;;;31.64;51.58
54850;BME280;47660;51.334;12.396;2023-07-29T05:38:05;99457.31;;;31.49;51.55
54850;BME280;47660;51.334;12.396;2023-07-29T05:40:34;99452.47;;;31.61;52.62
54850;BME280;47660;51.334;12.396;2023-07-29T05:43:00;99448.94;;;31.88;51.43
54850;BME280;47660;51.334;12.396;2023-07-29T05:45:28;99455.00;;;32.28;50.50
54850;BME280;47660;51.334;12.396;2023-07-29T05:48:02;99447.28;;;35.07;44.00
54850;BME280;47660;51.334;12.396;2023-07-29T05:50:27;99448.97;;;32.69;48.58
54850;BME280;47660;51.334;12.396;2023-07-29T05:52:53;99446.59;;;33.67;47.13
54850;BME280;47660;51.334;12.396;2023-07-29T05:55:23;99444.66;;;33.73;45.94
54850;BME280;47660;51.334;12.396;2023-07-29T05:57:49;99445.78;;;34.49;44.76
54850;BME280;47660;51.334;12.396;2023-07-29T06:00:17;99442.63;;;34.87;44.11
54850;BME280;47660;51.334;12.396;2023-07-29T06:02:45;99444.38;;;33.59;47.01
54850;BME280;47660;51.334;12.396;2023-07-29T06:05:11;99431.44;;;33.75;45.36
54850;BME280;47660;51.334;12.396;2023-07-29T06:07:39;99436.13;;;33.85;45.73
54850;BME280;47660;51.334;12.396;2023-07-29T06:10:14;99438.31;;;33.67;46.98
54850;BME280;47660;51.334;12.396;2023-07-29T06:12:43;99448.81;;;33.91;45.82
54850;BME280;47660;51.334;12.396;2023-07-29T06:15:11;99451.03;;;33.99;45.77
54850;BME280;47660;51.334;12.396;2023-07-29T06:17:48;99435.25;;;33.48;46.85
54850;BME280;47660;51.334;12.396;2023-07-29T06:20:13;99432.84;;;34.09;45.03
54850;BME280;47660;51.334;12.396;2023-07-29T06:22:41;99425.09;;;34.36;45.05
54850;BME280;47660;51.334;12.396;2023-07-29T06:25:08;99435.50;;;32.78;48.08
54850;BME280;47660;51.334;12.396;2023-07-29T06:27:39;99433.56;;;35.37;43.32
54850;BME280;47660;51.334;12.396;2023-07-29T06:30:07;99424.78;;;34.59;44.05
54850;BME280;47660;51.334;12.396;2023-07-29T06:32:37;99424.44;;;34.81;43.87
54850;BME280;47660;51.334;12.396;2023-07-29T06:35:03;99416.28;;;34.19;44.11
54850;BME280;47660;51.334;12.396;2023-07-29T06:37:31;99418.19;;;33.82;45.48
54850;BME280;47660;51.334;12.396;2023-07-29T06:39:58;99421.06;;;32.98;47.19
54850;BME280;47660;51.334;12.396;2023-07-29T06:42:27;99419.06;;;32.35;50.05
54850;BME280;47660;51.334;12.396;2023-07-29T06:44:52;99433.53;;;32.68;48.48
54850;BME280;47660;51.334;12.396;2023-07-29T06:47:18;99436.13;;;32.37;49.19
54850;BME280;47660;51.334;12.396;2023-07-29T06:49:46;99430.09;;;33.93;46.13
54850;BME280;47660;51.334;12.396;2023-07-29T06:52:12;99423.56;;;33.04;47.84
54850;BME280;47660;51.334;12.396;2023-07-29T06:54:43;99416.13;;;35.42;43.76
54850;BME280;47660;51.334;12.396;2023-07-29T06:57:08;99431.34;;;33.33;46.06
54850;BME280;47660;51.334;12.396;2023-07-29T06:59:39;99431.91;;;32.72;47.17
54850;BME280;47660;51.334;12.396;2023-07-29T07:02:06;99427.38;;;32.93;46.57
54850;BME280;47660;51.334;12.396;2023-07-29T07:04:31;99419.06;;;34.03;44.46
54850;BME280;47660;51.334;12.396;2023-07-29T07:07:00;99420.53;;;34.87;42.42
54850;BME280;47660;51.334;12.396;2023-07-29T07:09:28;99428.31;;;34.80;42.72
54850;BME280;47660;51.334;12.396;2023-07-29T07:11:56;99426.22;;;34.04;44.50
54850;BME280;47660;51.334;12.396;2023-07-29T07:14:21;99421.50;;;34.51;42.67
54850;BME280;47660;51.334;12.396;2023-07-29T07:16:47;99412.13;;;34.21;43.92
54850;BME280;47660;51.334;12.396;2023-07-29T07:19:14;99412.50;;;36.94;39.77
54850;BME280;47660;51.334;12.396;2023-07-29T07:21:40;99415.00;;;35.48;41.17
54850;BME280;47660;51.334;12.396;2023-07-29T07:24:05;99414.88;;;35.23;41.62
54850;BME280;47660;51.334;12.396;2023-07-29T07:26:36;99405.00;;;36.21;40.41
54850;BME280;47660;51.334;12.396;2023-07-29T07:29:04;99403.19;;;35.77;40.80
54850;BME280;47660;51.334;12.396;2023-07-29T07:31:33;99383.66;;;37.19;38.83
54850;BME280;47660;51.334;12.396;2023-07-29T07:34:01;99399.56;;;35.42;40.86
54850;BME280;47660;51.334;12.396;2023-07-29T07:36:29;99406.63;;;33.90;43.53
54850;BME280;47660;51.334;12.396;2023-07-29T07:39:04;99401.69;;;34.03;42.07
54850;BME280;47660;51.334;12.396;2023-07-29T07:41:30;99394.22;;;35.90;39.90
54850;BME280;47660;51.334;12.396;2023-07-29T07:43:58;99383.72;;;35.58;41.00
54850;BME280;47660;51.334;12.396;2023-07-29T07:46:23;99376.97;;;35.29;40.51
54850;BME280;47660;51.334;12.396;2023-07-29T07:48:53;99377.91;;;34.48;42.23
54850;BME280;47660;51.334;12.396;2023-07-29T07:51:24;99388.69;;;34.24;43.03
54850;BME280;47660;51.334;12.396;2023-07-29T07:53:49;99379.91;;;33.70;43.69
54850;BME280;47660;51.334;12.396;2023-07-29T07:56:17;99381.56;;;34.94;41.45
54850;BME280;47660;51.334;12.396;2023-07-29T07:58:43;99378.97;;;35.63;40.23
54850;BME280;47660;51.334;12.396;2023-07-29T08:01:11;99378.84;;;36.62;38.22
54850;BME280;47660;51.334;12.396;2023-07-29T08:03:39;99381.34;;;34.85;41.21
54850;BME280;47660;51.334;12.396;2023-07-29T08:06:05;99385.88;;;34.50;42.10
54850;BME280;47660;51.334;12.396;2023-07-29T08:08:44;99377.47;;;36.11;39.64
54850;BME280;47660;51.334;12.396;2023-07-29T08:11:13;99384.53;;;34.37;42.22
54850;BME280;47660;51.334;12.396;2023-07-29T08:13:41;99386.41;;;36.56;39.24
54850;BME280;47660;51.334;12.396;2023-07-29T08:16:06;99387.09;;;35.04;41.02
54850;BME280;47660;51.334;12.396;2023-07-29T08:18:32;99381.69;;;35.29;40.66
54850;BME280;47660;51.334;12.396;2023-07-29T08:20:58;99372.53;;;35.33;40.96
54850;BME280;47660;51.334;12.396;2023-07-29T08:23:29;99382.84;;;34.41;42.18
54850;BME280;47660;51.334;12.396;2023-07-29T08:25:58;99371.09;;;33.84;43.99
54850;BME280;47660;51.334;12.396;2023-07-29T08:28:31;99367.44;;;34.45;43.33
54850;BME280;47660;51.334;12.396;2023-07-29T08:31:06;99363.75;;;35.66;40.46
54850;BME280;47660;51.334;12.396;2023-07-29T08:33:33;99364.75;;;34.09;42.59
54850;BME280;47660;51.334;12.396;2023-07-29T08:36:02;99368.19;;;36.75;38.92
54850;BME280;47660;51.334;12.396;2023-07-29T08:38:33;99365.06;;;35.74;40.00
54850;BME280;47660;51.334;12.396;2023-07-29T08:41:24;99356.75;;;37.58;37.41
54850;BME280;47660;51.334;12.396;2023-07-29T08:43:56;99363.13;;;37.39;37.68
54850;BME280;47660;51.334;12.396;2023-07-29T08:46:28;99354.97;;;37.29;38.20
54850;BME280;47660;51.334;12.396;2023-07-29T08:48:57;99362.81;;;36.35;39.72
54850;BME280;47660;51.334;12.396;2023-07-29T08:51:30;99362.38;;;35.98;39.94
54850;BME280;47660;51.334;12.396;2023-07-29T08:54:13;99367.06;;;36.76;39.02
54850;BME280;47660;51.334;12.396;2023-07-29T08:56:45;99359.94;;;35.57;39.93
54850;BME280;47660;51.334;12.396;2023-07-29T08:59:15;99360.56;;;35.43;41.48
54850;BME280;47660;51.334;12.396;2023-07-29T09:01:44;99348.75;;;36.31;39.19
54850;BME280;47660;51.334;12.396;2023-07-29T09:04:15;99346.69;;;37.62;37.42
54850;BME280;47660;51.334;12.396;2023-07-29T09:06:44;99343.59;;;37.30;38.23
54850;BME280;47660;51.334;12.396;2023-07-29T09:09:15;99343.63;;;36.87;38.16
54850;BME280;47660;51.334;12.396;2023-07-29T09:11:46;99339.59;;;37.37;37.71
54850;BME280;47660;51.334;12.396;2023-07-29T09:14:14;99341.25;;;35.78;39.68
54850;BME280;47660;51.334;12.396;2023-07-29T09:16:45;99342.97;;;36.76;38.11
54850;BME280;47660;51.334;12.396;2023-07-29T09:19:14;99334.16;;;37.12;38.32
54850;BME280;47660;51.334;12.396;2023-07-29T09:21:42;99336.47;;;37.77;36.58
54850;BME280;47660;51.334;12.396;2023-07-29T09:24:20;99348.41;;;35.44;40.00
54850;BME280;47660;51.334;12.396;2023-07-29T09:26:51;99338.34;;;37.81;36.88
54850;BME280;47660;51.334;12.396;2023-07-29T09:29:27;99341.56;;;36.79;38.89
54850;BME280;47660;51.334;12.396;2023-07-29T09:32:20;99350.34;;;35.49;41.17
54850;BME280;47660;51.334;12.396;2023-07-29T09:34:48;99352.44;;;36.46;39.11
54850;BME280;47660;51.334;12.396;2023-07-29T09:37:23;99339.09;;;37.15;38.16
54850;BME280;47660;51.334;12.396;2023-07-29T09:40:14;99351.63;;;35.62;41.44
54850;BME280;47660;51.334;12.396;2023-07-29T09:42:42;99354.97;;;34.53;43.32
54850;BME280;47660;51.334;12.396;2023-07-29T09:47:49;99354.13;;;34.68;43.40
54850;BME280;47660;51.334;12.396;2023-07-29T09:50:23;99348.22;;;35.70;41.66
54850;BME280;47660;51.334;12.396;2023-07-29T09:52:53;99354.69;;;35.60;41.19
54850;BME280;47660;51.334;12.396;2023-07-29T09:55:24;99354.53;;;34.91;43.37
54850;BME280;47660;51.334;12.396;2023-07-29T09:57:58;99355.88;;;35.49;42.14
54850;BME280;47660;51.334;12.396;2023-07-29T10:00:51;99347.75;;;36.70;40.93
54850;BME280;47660;51.334;12.396;2023-07-29T10:03:19;99340.16;;;37.00;39.38
54850;BME280;47660;51.334;12.396;2023-07-29T10:05:48;99342.84;;;35.84;41.31
54850;BME280;47660;51.334;12.396;2023-07-29T10:08:15;99328.59;;;36.74;39.95
54850;BME280;47660;51.334;12.396;2023-07-29T10:10:46;99329.31;;;37.23;38.63
54850;BME280;47660;51.334;12.396;2023-07-29T10:13:19;99346.47;;;35.50;41.79
54850;BME280;47660;51.334;12.396;2023-07-29T10:15:45;99329.44;;;36.26;40.80
54850;BME280;47660;51.334;12.396;2023-07-29T10:18:11;99333.50;;;36.58;40.36
54850;BME280;47660;51.334;12.396;2023-07-29T10:20:37;99336.22;;;35.50;41.65
54850;BME280;47660;51.334;12.396;2023-07-29T10:23:06;99329.50;;;36.45;40.18
54850;BME280;47660;51.334;12.396;2023-07-29T10:25:37;99338.84;;;35.31;42.62
54850;BME280;47660;51.334;12.396;2023-07-29T10:28:06;99340.00;;;34.70;43.93
54850;BME280;47660;51.334;12.396;2023-07-29T10:30:32;99347.66;;;34.12;44.70
54850;BME280;47660;51.334;12.396;2023-07-29T10:32:58;99345.91;;;35.08;43.33
54850;BME280;47660;51.334;12.396;2023-07-29T10:35:29;99341.97;;;36.42;41.13
54850;BME280;47660;51.334;12.396;2023-07-29T10:37:57;99347.59;;;35.04;43.35
54850;BME280;47660;51.334;12.396;2023-07-29T10:40:22;99352.50;;;36.16;41.52
54850;BME280;47660;51.334;12.396;2023-07-29T10:45:39;99328.13;;;36.67;42.32
54850;BME280;47660;51.334;12.396;2023-07-29T10:51:34;99320.00;;;37.99;39.38
54850;BME280;47660;51.334;12.396;2023-07-29T10:54:10;99319.41;;;35.47;44.32
54850;BME280;47660;51.334;12.396;2023-07-29T10:56:37;99322.25;;;36.01;43.27
54850;BME280;47660;51.334;12.396;2023-07-29T11:01:58;99311.59;;;35.19;44.25
54850;BME280;47660;51.334;12.396;2023-07-29T11:04:28;99308.34;;;37.17;40.85
54850;BME280;47660;51.334;12.396;2023-07-29T11:17:39;99294.56;;;35.42;40.69
54850;BME280;47660;51.334;12.396;2023-07-29T11:20:05;99287.19;;;35.91;39.61
54850;BME280;47660;51.334;12.396;2023-07-29T11:22:33;99281.31;;;37.09;37.43
54850;BME280;47660;51.334;12.396;2023-07-29T11:24:58;99293.19;;;36.90;37.58
54850;BME280;47660;51.334;12.396;2023-07-29T11:27:24;99303.19;;;35.99;39.13
54850;BME280;47660;51.334;12.396;2023-07-29T11:33:00;99291.44;;;35.83;38.23
54850;BME280;47660;51.334;12.396;2023-07-29T11:35:31;99288.34;;;35.60;38.99
54850;BME280;47660;51.334;12.396;2023-07-29T11:38:03;99293.53;;;35.32;39.06
54850;BME280;47660;51.334;12.396;2023-07-29T11:40:28;99289.75;;;36.36;37.02
54850;BME280;47660;51.334;12.396;2023-07-29T11:42:54;99283.06;;;36.18;37.07
54850;BME280;47660;51.334;12.396;2023-07-29T11:45:22;99284.06;;;36.70;36.95
54850;BME280;47660;51.334;12.396;2023-07-29T11:47:48;99291.06;;;35.90;36.97
54850;BME280;47660;51.334;12.396;2023-07-29T11:50:15;99279.13;;;35.70;37.95
54850;BME280;47660;51.334;12.396;2023-07-29T11:52:44;99281.31;;;35.73;38.06
54850;BME280;47660;51.334;12.396;2023-07-29T11:55:14;99278.75;;;37.65;35.56
54850;BME280;47660;51.334;12.396;2023-07-29T11:57:43;99272.28;;;40.21;31.86
54850;BME280;47660;51.334;12.396;2023-07-29T12:00:10;99285.59;;;37.53;35.25
54850;BME280;47660;51.334;12.396;2023-07-29T12:02:44;99274.28;;;36.35;37.34
54850;BME280;47660;51.334;12.396;2023-07-29T12:05:11;99286.31;;;35.71;38.29
54850;BME280;47660;51.334;12.396;2023-07-29T12:07:42;99274.19;;;37.03;35.99
54850;BME280;47660;51.334;12.396;2023-07-29T12:10:13;99270.16;;;37.47;35.00
54850;BME280;47660;51.334;12.396;2023-07-29T12:12:49;99267.69;;;38.85;33.04
54850;BME280;47660;51.334;12.396;2023-07-29T12:15:29;99273.69;;;38.92;33.31
54850;BME280;47660;51.334;12.396;2023-07-29T12:17:59;99277.09;;;38.75;33.54
54850;BME280;47660;51.334;12.396;2023-07-29T12:20:28;99282.22;;;37.04;36.26
54850;BME280;47660;51.334;12.396;2023-07-29T12:22:58;99268.09;;;37.86;35.19
54850;BME280;47660;51.334;12.396;2023-07-29T12:25:24;99280.47;;;36.02;37.49
54850;BME280;47660;51.334;12.396;2023-07-29T12:27:53;99280.28;;;34.89;39.40
54850;BME280;47660;51.334;12.396;2023-07-29T12:30:22;99281.00;;;37.63;35.84
54850;BME280;47660;51.334;12.396;2023-07-29T12:32:48;99277.34;;;36.77;37.95
54850;BME280;47660;51.334;12.396;2023-07-29T12:35:13;99288.44;;;35.50;39.46
54850;BME280;47660;51.334;12.396;2023-07-29T12:37:40;99281.25;;;36.08;38.95
54850;BME280;47660;51.334;12.396;2023-07-29T12:40:24;99271.28;;;37.79;35.92
54850;BME280;47660;51.334;12.396;2023-07-29T12:42:51;99272.41;;;36.93;37.80
54850;BME280;47660;51.334;12.396;2023-07-29T12:45:17;99255.44;;;37.80;36.43
54850;BME280;47660;51.334;12.396;2023-07-29T12:47:46;99268.16;;;37.34;36.33
54850;BME280;47660;51.334;12.396;2023-07-29T12:50:20;99266.47;;;37.19;36.98
54850;BME280;47660;51.334;12.396;2023-07-29T12:52:51;99281.31;;;35.73;39.57
54850;BME280;47660;51.334;12.396;2023-07-29T12:55:17;99265.19;;;36.10;38.31
54850;BME280;47660;51.334;12.396;2023-07-29T12:57:43;99256.59;;;37.93;35.28
54850;BME280;47660;51.334;12.396;2023-07-29T13:00:20;99260.28;;;36.69;37.60
54850;BME280;47660;51.334;12.396;2023-07-29T13:02:46;99255.00;;;37.25;36.39
54850;BME280;47660;51.334;12.396;2023-07-29T13:05:13;99261.19;;;36.84;36.95
54850;BME280;47660;51.334;12.396;2023-07-29T13:07:42;99250.81;;;37.28;35.41
54850;BME280;47660;51.334;12.396;2023-07-29T13:10:17;99250.06;;;36.46;35.86
54850;BME280;47660;51.334;12.396;2023-07-29T13:12:43;99256.78;;;35.91;35.73
54850;BME280;47660;51.334;12.396;2023-07-29T13:15:11;99254.66;;;38.86;32.25
54850;BME280;47660;51.334;12.396;2023-07-29T13:17:38;99254.31;;;38.51;31.76
54850;BME280;47660;51.334;12.396;2023-07-29T13:20:07;99231.38;;;40.22;30.68
54850;BME280;47660;51.334;12.396;2023-07-29T13:22:32;99219.38;;;42.22;26.75
54850;BME280;47660;51.334;12.396;2023-07-29T13:25:00;99226.00;;;41.79;26.74
54850;BME280;47660;51.334;12.396;2023-07-29T13:27:29;99236.63;;;36.15;34.05
54850;BME280;47660;51.334;12.396;2023-07-29T13:30:00;99243.44;;;37.37;33.16
54850;BME280;47660;51.334;12.396;2023-07-29T13:32:34;99234.53;;;35.77;34.60